createdAt,value
2023-03-02T11:56:44.889Z,11.50
2023-03-02T11:57:45.360Z,12.50
2023-03-02T11:58:45.313Z,12.70
2023-03-02T11:59:45.563Z,13.10
2023-03-02T12:00:45.299Z,12.40
2023-03-02T12:01:45.302Z,12.50
2023-03-02T12:02:45.932Z,16.10
2023-03-02T12:03:45.296Z,13.70
2023-03-02T12:04:45.222Z,14.60
2023-03-02T12:05:45.302Z,15.10
2023-03-02T12:06:45.239Z,9.60
2023-03-02T12:07:45.154Z,11.50
2023-03-02T12:08:45.153Z,13.40
2023-03-02T12:09:47.767Z,11.30
2023-03-02T12:10:45.178Z,14.40
2023-03-02T12:11:45.780Z,11.00
2023-03-02T12:12:45.071Z,13.00
2023-03-02T12:13:45.095Z,13.80
2023-03-02T12:14:45.109Z,12.90
2023-03-02T12:15:45.116Z,12.90
2023-03-02T12:16:45.778Z,12.60
2023-03-02T12:17:45.077Z,11.20
2023-03-02T12:18:44.994Z,13.00
2023-03-02T12:19:45.908Z,11.20
2023-03-02T12:20:45.013Z,12.90
2023-03-02T12:21:46.016Z,13.00
2023-03-02T12:22:45.051Z,13.40
2023-03-02T12:23:45.005Z,12.40
2023-03-02T12:24:45.072Z,12.90
2023-03-02T12:25:45.740Z,11.30
2023-03-02T12:26:44.985Z,15.60
2023-03-02T12:27:46.025Z,12.40
2023-03-02T22:53:27.720Z,16.40
2023-03-02T22:54:08.298Z,13.80
2023-03-02T22:55:08.176Z,13.80
2023-03-02T22:56:08.092Z,14.80
2023-03-02T22:57:08.140Z,14.50
2023-03-02T22:58:08.787Z,14.70
2023-03-02T22:59:07.483Z,14.20
2023-03-02T23:00:09.008Z,13.60
2023-03-02T23:01:08.124Z,13.00
2023-03-02T23:02:08.139Z,14.30
2023-03-02T23:03:07.405Z,16.70
2023-03-02T23:04:08.841Z,18.60
2023-03-02T23:05:07.486Z,16.10
2023-03-02T23:06:07.355Z,16.90
2023-03-02T23:07:08.997Z,13.90
2023-03-02T23:08:07.344Z,13.10
2023-03-02T23:09:07.373Z,15.20
2023-03-02T23:10:09.524Z,15.50
2023-03-02T23:11:09.406Z,16.60
2023-03-02T23:12:07.350Z,15.80
2023-03-02T23:13:07.972Z,16.80
2023-03-02T23:14:07.268Z,14.60
2023-03-02T23:15:08.191Z,14.20
2023-03-02T23:16:08.104Z,19.40
2023-03-02T23:17:08.112Z,16.40
2023-03-02T23:18:07.222Z,16.90
2023-03-02T23:19:07.249Z,30.70
2023-03-02T23:20:08.970Z,17.90
2023-03-02T23:21:07.202Z,19.90
2023-03-02T23:22:07.185Z,19.80
2023-03-02T23:23:07.208Z,20.40
2023-03-02T23:24:07.977Z,25.20
2023-03-02T23:25:07.862Z,23.90
2023-03-02T23:26:07.215Z,24.70
2023-03-02T23:27:07.141Z,26.30
2023-03-02T23:28:07.107Z,27.00
2023-03-02T23:29:07.213Z,28.70
2023-03-02T23:30:07.854Z,27.10
2023-03-02T23:31:07.121Z,26.90
2023-03-02T23:32:08.609Z,28.30
2023-03-02T23:33:07.957Z,32.00
2023-03-02T23:34:07.056Z,32.30
2023-03-02T23:35:07.072Z,31.20
2023-03-02T23:36:07.865Z,34.10
2023-03-02T23:37:07.045Z,32.50
2023-03-02T23:38:06.991Z,34.10
2023-03-02T23:39:07.017Z,32.20
2023-03-02T23:40:06.969Z,34.80
2023-03-02T23:41:07.070Z,32.50
2023-03-02T23:42:06.963Z,34.20
2023-03-02T23:43:07.725Z,33.50
2023-03-02T23:44:06.938Z,40.00
2023-03-02T23:45:06.930Z,39.30
2023-03-02T23:46:07.002Z,41.20
2023-03-02T23:47:06.958Z,42.60
2023-03-02T23:48:07.611Z,43.20
2023-03-02T23:49:06.875Z,46.90
2023-03-02T23:50:07.567Z,44.60
2023-03-02T23:51:06.844Z,44.50
2023-03-02T23:52:07.722Z,44.50
2023-03-02T23:53:06.831Z,46.00
2023-03-02T23:54:07.491Z,45.40
2023-03-02T23:55:06.805Z,47.10
2023-03-02T23:56:06.823Z,42.30
2023-03-02T23:57:06.777Z,42.70
2023-03-02T23:58:06.803Z,38.90
2023-03-02T23:59:07.183Z,44.90
